sensor_id;sensor_type;location;lat;lon;timestamp;P1;durP1;ratioP1;P2;durP2;ratioP2
17065;SDS011;23120;52.336;21.182;2022-08-18T00:00:42;15.77;;;14.10;;
17065;SDS011;23120;52.336;21.182;2022-08-18T00:03:09;16.37;;;14.87;;
17065;SDS011;23120;52.336;21.182;2022-08-18T00:05:38;15.47;;;13.90;;
17065;SDS011;23120;52.336;21.182;2022-08-18T00:08:05;16.30;;;14.53;;
17065;SDS011;23120;52.336;21.182;2022-08-18T00:10:32;18.23;;;14.87;;
17065;SDS011;23120;52.336;21.182;2022-08-18T00:12:59;14.93;;;13.70;;
17065;SDS011;23120;52.336;21.182;2022-08-18T00:15:26;16.00;;;14.60;;
17065;SDS011;23120;52.336;21.182;2022-08-18T00:17:53;15.37;;;13.97;;
17065;SDS011;23120;52.336;21.182;2022-08-18T00:20:21;15.20;;;13.70;;
17065;SDS011;23120;52.336;21.182;2022-08-18T00:22:50;15.40;;;13.77;;
17065;SDS011;23120;52.336;21.182;2022-08-18T00:25:18;16.50;;;14.90;;
17065;SDS011;23120;52.336;21.182;2022-08-18T00:27:46;15.47;;;14.07;;
17065;SDS011;23120;52.336;21.182;2022-08-18T00:30:14;15.13;;;13.73;;
17065;SDS011;23120;52.336;21.182;2022-08-18T00:32:43;14.70;;;13.10;;
17065;SDS011;23120;52.336;21.182;2022-08-18T00:35:13;15.23;;;13.97;;
17065;SDS011;23120;52.336;21.182;2022-08-18T00:37:42;16.27;;;14.47;;
17065;SDS011;23120;52.336;21.182;2022-08-18T00:40:12;15.63;;;14.00;;
17065;SDS011;23120;52.336;21.182;2022-08-18T00:42:42;16.40;;;14.90;;
17065;SDS011;23120;52.336;21.182;2022-08-18T00:45:13;16.20;;;14.57;;
17065;SDS011;23120;52.336;21.182;2022-08-18T00:47:40;16.20;;;14.70;;
17065;SDS011;23120;52.336;21.182;2022-08-18T00:50:08;14.73;;;13.33;;
17065;SDS011;23120;52.336;21.182;2022-08-18T00:52:37;16.73;;;14.87;;
17065;SDS011;23120;52.336;21.182;2022-08-18T00:55:04;15.43;;;14.00;;
17065;SDS011;23120;52.336;21.182;2022-08-18T00:57:33;15.63;;;14.33;;
17065;SDS011;23120;52.336;21.182;2022-08-18T01:00:04;15.57;;;14.27;;
17065;SDS011;23120;52.336;21.182;2022-08-18T01:02:36;16.17;;;14.77;;
17065;SDS011;23120;52.336;21.182;2022-08-18T01:05:09;16.13;;;14.43;;
17065;SDS011;23120;52.336;21.182;2022-08-18T01:07:42;16.00;;;14.30;;
17065;SDS011;23120;52.336;21.182;2022-08-18T01:10:11;16.50;;;14.80;;
17065;SDS011;23120;52.336;21.182;2022-08-18T01:12:42;16.00;;;14.40;;
17065;SDS011;23120;52.336;21.182;2022-08-18T01:15:10;16.03;;;14.40;;
17065;SDS011;23120;52.336;21.182;2022-08-18T01:17:38;14.90;;;13.50;;
17065;SDS011;23120;52.336;21.182;2022-08-18T01:20:25;15.27;;;13.73;;
17065;SDS011;23120;52.336;21.182;2022-08-18T01:23:14;15.37;;;13.77;;
17065;SDS011;23120;52.336;21.182;2022-08-18T01:25:44;16.03;;;14.57;;
17065;SDS011;23120;52.336;21.182;2022-08-18T01:28:29;15.60;;;14.03;;
17065;SDS011;23120;52.336;21.182;2022-08-18T01:30:58;16.60;;;14.87;;
17065;SDS011;23120;52.336;21.182;2022-08-18T01:33:27;15.60;;;13.97;;
17065;SDS011;23120;52.336;21.182;2022-08-18T01:35:57;15.07;;;13.87;;
17065;SDS011;23120;52.336;21.182;2022-08-18T01:38:29;14.67;;;13.47;;
17065;SDS011;23120;52.336;21.182;2022-08-18T01:40:56;14.10;;;12.80;;
17065;SDS011;23120;52.336;21.182;2022-08-18T01:43:24;16.27;;;14.37;;
17065;SDS011;23120;52.336;21.182;2022-08-18T01:45:51;14.30;;;13.13;;
17065;SDS011;23120;52.336;21.182;2022-08-18T01:48:18;15.70;;;14.10;;
17065;SDS011;23120;52.336;21.182;2022-08-18T01:50:45;15.03;;;13.67;;
17065;SDS011;23120;52.336;21.182;2022-08-18T01:53:13;15.60;;;14.27;;
17065;SDS011;23120;52.336;21.182;2022-08-18T01:55:43;16.13;;;14.73;;
17065;SDS011;23120;52.336;21.182;2022-08-18T01:58:10;17.10;;;15.30;;
17065;SDS011;23120;52.336;21.182;2022-08-18T02:00:37;15.83;;;14.47;;
17065;SDS011;23120;52.336;21.182;2022-08-18T02:03:06;17.00;;;14.40;;
17065;SDS011;23120;52.336;21.182;2022-08-18T02:05:37;18.17;;;14.37;;
17065;SDS011;23120;52.336;21.182;2022-08-18T02:08:07;14.93;;;13.50;;
17065;SDS011;23120;52.336;21.182;2022-08-18T02:10:36;16.03;;;14.60;;
17065;SDS011;23120;52.336;21.182;2022-08-18T02:13:05;15.53;;;14.10;;
17065;SDS011;23120;52.336;21.182;2022-08-18T02:15:33;15.37;;;14.00;;
17065;SDS011;23120;52.336;21.182;2022-08-18T02:18:00;16.37;;;14.93;;
17065;SDS011;23120;52.336;21.182;2022-08-18T02:20:27;15.70;;;14.40;;
17065;SDS011;23120;52.336;21.182;2022-08-18T02:22:54;15.03;;;13.50;;
17065;SDS011;23120;52.336;21.182;2022-08-18T02:25:23;15.47;;;14.17;;
17065;SDS011;23120;52.336;21.182;2022-08-18T02:27:50;14.40;;;13.20;;
17065;SDS011;23120;52.336;21.182;2022-08-18T02:30:18;15.70;;;14.30;;
17065;SDS011;23120;52.336;21.182;2022-08-18T02:32:46;15.60;;;14.20;;
17065;SDS011;23120;52.336;21.182;2022-08-18T02:35:14;16.73;;;15.07;;
17065;SDS011;23120;52.336;21.182;2022-08-18T02:37:41;16.70;;;15.10;;
17065;SDS011;23120;52.336;21.182;2022-08-18T02:40:11;16.47;;;14.83;;
17065;SDS011;23120;52.336;21.182;2022-08-18T02:42:39;17.97;;;14.33;;
17065;SDS011;23120;52.336;21.182;2022-08-18T02:45:07;16.40;;;14.70;;
17065;SDS011;23120;52.336;21.182;2022-08-18T02:47:36;15.73;;;14.33;;
17065;SDS011;23120;52.336;21.182;2022-08-18T02:50:04;16.23;;;14.50;;
17065;SDS011;23120;52.336;21.182;2022-08-18T02:52:33;17.07;;;13.47;;
17065;SDS011;23120;52.336;21.182;2022-08-18T02:55:01;16.97;;;13.90;;
17065;SDS011;23120;52.336;21.182;2022-08-18T02:57:29;21.63;;;14.80;;
17065;SDS011;23120;52.336;21.182;2022-08-18T02:59:56;20.30;;;14.00;;
17065;SDS011;23120;52.336;21.182;2022-08-18T03:02:25;18.73;;;14.40;;
17065;SDS011;23120;52.336;21.182;2022-08-18T03:05:00;16.83;;;13.50;;
17065;SDS011;23120;52.336;21.182;2022-08-18T03:07:27;15.80;;;13.50;;
17065;SDS011;23120;52.336;21.182;2022-08-18T03:09:54;15.87;;;14.13;;
17065;SDS011;23120;52.336;21.182;2022-08-18T03:12:21;15.43;;;12.90;;
17065;SDS011;23120;52.336;21.182;2022-08-18T03:14:49;15.87;;;14.17;;
17065;SDS011;23120;52.336;21.182;2022-08-18T03:17:15;16.20;;;14.50;;
17065;SDS011;23120;52.336;21.182;2022-08-18T03:19:42;15.47;;;14.07;;
17065;SDS011;23120;52.336;21.182;2022-08-18T03:22:11;15.93;;;14.43;;
17065;SDS011;23120;52.336;21.182;2022-08-18T03:24:38;17.20;;;13.90;;
17065;SDS011;23120;52.336;21.182;2022-08-18T03:27:06;15.13;;;13.63;;
17065;SDS011;23120;52.336;21.182;2022-08-18T03:29:33;16.37;;;14.83;;
17065;SDS011;23120;52.336;21.182;2022-08-18T03:32:01;15.83;;;14.37;;
17065;SDS011;23120;52.336;21.182;2022-08-18T03:34:29;16.17;;;14.67;;
17065;SDS011;23120;52.336;21.182;2022-08-18T03:36:56;15.57;;;14.13;;
17065;SDS011;23120;52.336;21.182;2022-08-18T03:39:25;17.67;;;14.47;;
17065;SDS011;23120;52.336;21.182;2022-08-18T03:41:54;15.07;;;13.77;;
17065;SDS011;23120;52.336;21.182;2022-08-18T03:44:23;15.53;;;14.00;;
17065;SDS011;23120;52.336;21.182;2022-08-18T03:46:50;14.30;;;13.07;;
17065;SDS011;23120;52.336;21.182;2022-08-18T03:49:17;15.60;;;14.00;;
17065;SDS011;23120;52.336;21.182;2022-08-18T03:51:45;14.53;;;13.23;;
17065;SDS011;23120;52.336;21.182;2022-08-18T03:54:12;14.10;;;12.90;;
17065;SDS011;23120;52.336;21.182;2022-08-18T03:56:42;14.83;;;13.53;;
17065;SDS011;23120;52.336;21.182;2022-08-18T03:59:12;15.20;;;13.80;;
17065;SDS011;23120;52.336;21.182;2022-08-18T04:01:42;13.80;;;12.70;;
17065;SDS011;23120;52.336;21.182;2022-08-18T04:04:10;14.10;;;12.80;;
17065;SDS011;23120;52.336;21.182;2022-08-18T04:06:39;14.17;;;12.97;;
17065;SDS011;23120;52.336;21.182;2022-08-18T04:09:16;14.43;;;13.00;;
17065;SDS011;23120;52.336;21.182;2022-08-18T04:11:45;14.60;;;13.10;;
17065;SDS011;23120;52.336;21.182;2022-08-18T04:14:17;14.10;;;12.83;;
17065;SDS011;23120;52.336;21.182;2022-08-18T04:16:49;14.97;;;13.57;;
17065;SDS011;23120;52.336;21.182;2022-08-18T04:19:16;14.53;;;13.13;;
17065;SDS011;23120;52.336;21.182;2022-08-18T04:21:50;14.23;;;12.87;;
17065;SDS011;23120;52.336;21.182;2022-08-18T04:24:37;15.13;;;13.57;;
17065;SDS011;23120;52.336;21.182;2022-08-18T04:27:16;16.87;;;14.70;;
17065;SDS011;23120;52.336;21.182;2022-08-18T04:29:46;18.50;;;13.43;;
17065;SDS011;23120;52.336;21.182;2022-08-18T04:32:15;18.00;;;13.30;;
17065;SDS011;23120;52.336;21.182;2022-08-18T04:34:44;14.70;;;13.07;;
17065;SDS011;23120;52.336;21.182;2022-08-18T04:37:12;15.90;;;13.57;;
17065;SDS011;23120;52.336;21.182;2022-08-18T04:39:42;16.23;;;12.23;;
17065;SDS011;23120;52.336;21.182;2022-08-18T04:42:20;15.23;;;13.17;;
17065;SDS011;23120;52.336;21.182;2022-08-18T04:44:47;17.33;;;12.47;;
17065;SDS011;23120;52.336;21.182;2022-08-18T04:47:15;14.47;;;13.20;;
17065;SDS011;23120;52.336;21.182;2022-08-18T04:49:42;14.90;;;12.97;;
17065;SDS011;23120;52.336;21.182;2022-08-18T04:52:09;15.50;;;13.67;;
17065;SDS011;23120;52.336;21.182;2022-08-18T04:54:53;14.73;;;13.33;;
17065;SDS011;23120;52.336;21.182;2022-08-18T04:57:22;15.23;;;13.87;;
17065;SDS011;23120;52.336;21.182;2022-08-18T04:59:50;14.77;;;13.50;;
17065;SDS011;23120;52.336;21.182;2022-08-18T05:02:18;14.43;;;12.93;;
17065;SDS011;23120;52.336;21.182;2022-08-18T05:04:46;16.77;;;13.73;;
17065;SDS011;23120;52.336;21.182;2022-08-18T05:07:16;16.50;;;14.23;;
17065;SDS011;23120;52.336;21.182;2022-08-18T05:09:44;15.23;;;13.67;;
17065;SDS011;23120;52.336;21.182;2022-08-18T05:12:12;15.00;;;13.70;;
17065;SDS011;23120;52.336;21.182;2022-08-18T05:14:42;15.03;;;13.73;;
17065;SDS011;23120;52.336;21.182;2022-08-18T05:17:10;19.13;;;15.40;;
17065;SDS011;23120;52.336;21.182;2022-08-18T05:19:38;17.50;;;15.80;;
17065;SDS011;23120;52.336;21.182;2022-08-18T05:22:05;16.87;;;15.07;;
17065;SDS011;23120;52.336;21.182;2022-08-18T05:24:32;16.80;;;15.00;;
17065;SDS011;23120;52.336;21.182;2022-08-18T05:27:00;16.87;;;15.00;;
17065;SDS011;23120;52.336;21.182;2022-08-18T05:29:28;16.93;;;15.17;;
17065;SDS011;23120;52.336;21.182;2022-08-18T05:32:00;16.77;;;15.20;;
17065;SDS011;23120;52.336;21.182;2022-08-18T05:34:28;18.43;;;16.60;;
17065;SDS011;23120;52.336;21.182;2022-08-18T05:36:57;16.67;;;15.13;;
17065;SDS011;23120;52.336;21.182;2022-08-18T05:39:31;16.97;;;15.40;;
17065;SDS011;23120;52.336;21.182;2022-08-18T05:42:06;16.93;;;15.50;;
17065;SDS011;23120;52.336;21.182;2022-08-18T05:44:38;17.53;;;15.97;;
17065;SDS011;23120;52.336;21.182;2022-08-18T05:47:11;17.87;;;16.07;;
17065;SDS011;23120;52.336;21.182;2022-08-18T05:49:40;17.03;;;15.43;;
17065;SDS011;23120;52.336;21.182;2022-08-18T05:52:11;17.93;;;16.23;;
17065;SDS011;23120;52.336;21.182;2022-08-18T05:54:42;18.00;;;16.00;;
17065;SDS011;23120;52.336;21.182;2022-08-18T05:57:31;17.63;;;15.80;;
17065;SDS011;23120;52.336;21.182;2022-08-18T06:00:04;16.07;;;14.63;;
17065;SDS011;23120;52.336;21.182;2022-08-18T06:02:40;17.00;;;14.60;;
17065;SDS011;23120;52.336;21.182;2022-08-18T06:05:12;16.70;;;15.13;;
17065;SDS011;23120;52.336;21.182;2022-08-18T06:07:48;17.53;;;14.40;;
17065;SDS011;23120;52.336;21.182;2022-08-18T06:10:18;15.87;;;14.37;;
17065;SDS011;23120;52.336;21.182;2022-08-18T06:12:46;16.43;;;14.77;;
17065;SDS011;23120;52.336;21.182;2022-08-18T06:15:17;16.60;;;14.10;;
17065;SDS011;23120;52.336;21.182;2022-08-18T06:18:02;16.23;;;14.57;;
17065;SDS011;23120;52.336;21.182;2022-08-18T06:20:57;17.63;;;14.48;;
17065;SDS011;23120;52.336;21.182;2022-08-18T06:23:38;15.77;;;14.07;;
17065;SDS011;23120;52.336;21.182;2022-08-18T06:26:12;15.98;;;14.57;;
17065;SDS011;23120;52.336;21.182;2022-08-18T06:28:47;15.27;;;13.88;;
17065;SDS011;23120;52.336;21.182;2022-08-18T06:31:26;16.45;;;14.27;;
17065;SDS011;23120;52.336;21.182;2022-08-18T06:34:07;16.27;;;14.77;;
17065;SDS011;23120;52.336;21.182;2022-08-18T06:36:44;14.60;;;13.18;;
17065;SDS011;23120;52.336;21.182;2022-08-18T06:39:19;16.02;;;14.52;;
17065;SDS011;23120;52.336;21.182;2022-08-18T06:42:10;15.40;;;13.85;;
17065;SDS011;23120;52.336;21.182;2022-08-18T06:45:05;15.80;;;14.07;;
17065;SDS011;23120;52.336;21.182;2022-08-18T06:48:02;14.75;;;13.55;;
17065;SDS011;23120;52.336;21.182;2022-08-18T06:50:51;15.18;;;12.95;;
17065;SDS011;23120;52.336;21.182;2022-08-18T06:53:21;14.50;;;13.13;;
17065;SDS011;23120;52.336;21.182;2022-08-18T06:55:49;13.52;;;12.27;;
17065;SDS011;23120;52.336;21.182;2022-08-18T06:58:21;14.25;;;12.77;;
17065;SDS011;23120;52.336;21.182;2022-08-18T07:00:54;13.95;;;12.55;;
17065;SDS011;23120;52.336;21.182;2022-08-18T07:03:38;14.13;;;11.80;;
17065;SDS011;23120;52.336;21.182;2022-08-18T07:09:40;12.82;;;11.63;;
17065;SDS011;23120;52.336;21.182;2022-08-18T07:12:07;13.00;;;11.82;;
17065;SDS011;23120;52.336;21.182;2022-08-18T07:14:43;14.63;;;11.40;;
17065;SDS011;23120;52.336;21.182;2022-08-18T07:17:12;12.25;;;10.95;;
17065;SDS011;23120;52.336;21.182;2022-08-18T07:19:53;12.10;;;10.70;;
17065;SDS011;23120;52.336;21.182;2022-08-18T07:22:25;10.70;;;9.77;;
17065;SDS011;23120;52.336;21.182;2022-08-18T07:24:53;10.63;;;9.60;;
17065;SDS011;23120;52.336;21.182;2022-08-18T07:27:38;11.27;;;10.10;;
17065;SDS011;23120;52.336;21.182;2022-08-18T07:30:11;11.23;;;10.15;;
17065;SDS011;23120;52.336;21.182;2022-08-18T07:32:50;10.63;;;9.60;;
17065;SDS011;23120;52.336;21.182;2022-08-18T07:35:21;10.00;;;9.00;;
17065;SDS011;23120;52.336;21.182;2022-08-18T07:37:55;11.18;;;9.38;;
17065;SDS011;23120;52.336;21.182;2022-08-18T07:40:26;10.38;;;9.27;;
17065;SDS011;23120;52.336;21.182;2022-08-18T07:43:00;10.68;;;9.50;;
17065;SDS011;23120;52.336;21.182;2022-08-18T07:45:32;10.10;;;9.15;;
17065;SDS011;23120;52.336;21.182;2022-08-18T07:48:03;9.90;;;8.95;;
17065;SDS011;23120;52.336;21.182;2022-08-18T07:50:39;10.48;;;8.95;;
17065;SDS011;23120;52.336;21.182;2022-08-18T07:53:25;10.27;;;9.27;;
17065;SDS011;23120;52.336;21.182;2022-08-18T07:56:01;14.32;;;9.18;;
17065;SDS011;23120;52.336;21.182;2022-08-18T07:58:33;9.55;;;8.65;;
17065;SDS011;23120;52.336;21.182;2022-08-18T08:01:13;10.95;;;8.90;;
17065;SDS011;23120;52.336;21.182;2022-08-18T08:03:51;9.90;;;8.95;;
17065;SDS011;23120;52.336;21.182;2022-08-18T08:06:27;11.23;;;8.80;;
17065;SDS011;23120;52.336;21.182;2022-08-18T08:09:02;9.52;;;8.68;;
17065;SDS011;23120;52.336;21.182;2022-08-18T08:11:42;9.75;;;8.38;;
17065;SDS011;23120;52.336;21.182;2022-08-18T08:14:21;9.20;;;8.23;;
17065;SDS011;23120;52.336;21.182;2022-08-18T08:16:59;9.43;;;8.35;;
17065;SDS011;23120;52.336;21.182;2022-08-18T08:19:42;8.80;;;7.85;;
17065;SDS011;23120;52.336;21.182;2022-08-18T08:22:19;11.45;;;9.13;;
17065;SDS011;23120;52.336;21.182;2022-08-18T08:24:56;9.25;;;8.30;;
17065;SDS011;23120;52.336;21.182;2022-08-18T08:27:31;10.82;;;8.25;;
17065;SDS011;23120;52.336;21.182;2022-08-18T08:30:08;8.73;;;8.00;;
17065;SDS011;23120;52.336;21.182;2022-08-18T08:32:40;9.02;;;7.68;;
17065;SDS011;23120;52.336;21.182;2022-08-18T08:35:15;8.00;;;7.30;;
17065;SDS011;23120;52.336;21.182;2022-08-18T08:37:47;8.88;;;7.97;;
17065;SDS011;23120;52.336;21.182;2022-08-18T08:40:21;8.20;;;7.38;;
17065;SDS011;23120;52.336;21.182;2022-08-18T08:42:52;7.88;;;7.18;;
17065;SDS011;23120;52.336;21.182;2022-08-18T08:45:24;8.65;;;7.45;;
17065;SDS011;23120;52.336;21.182;2022-08-18T08:47:57;30.58;;;10.02;;
17065;SDS011;23120;52.336;21.182;2022-08-18T08:50:28;27.20;;;9.10;;
17065;SDS011;23120;52.336;21.182;2022-08-18T08:52:59;10.40;;;7.90;;
17065;SDS011;23120;52.336;21.182;2022-08-18T08:55:33;11.23;;;7.63;;
17065;SDS011;23120;52.336;21.182;2022-08-18T08:58:09;10.50;;;8.13;;
17065;SDS011;23120;52.336;21.182;2022-08-18T09:00:42;10.88;;;7.63;;
17065;SDS011;23120;52.336;21.182;2022-08-18T09:03:14;8.48;;;7.60;;
17065;SDS011;23120;52.336;21.182;2022-08-18T09:05:59;8.40;;;7.70;;
17065;SDS011;23120;52.336;21.182;2022-08-18T09:08:37;8.70;;;7.60;;
17065;SDS011;23120;52.336;21.182;2022-08-18T09:11:19;8.43;;;6.65;;
17065;SDS011;23120;52.336;21.182;2022-08-18T09:14:04;8.90;;;7.55;;
17065;SDS011;23120;52.336;21.182;2022-08-18T09:16:51;7.90;;;7.18;;
17065;SDS011;23120;52.336;21.182;2022-08-18T09:19:38;7.15;;;6.55;;
17065;SDS011;23120;52.336;21.182;2022-08-18T09:22:18;7.95;;;7.03;;
17065;SDS011;23120;52.336;21.182;2022-08-18T09:24:57;7.70;;;6.85;;
17065;SDS011;23120;52.336;21.182;2022-08-18T09:27:36;8.20;;;6.88;;
17065;SDS011;23120;52.336;21.182;2022-08-18T09:30:06;7.75;;;6.97;;
17065;SDS011;23120;52.336;21.182;2022-08-18T09:32:55;8.00;;;7.20;;
17065;SDS011;23120;52.336;21.182;2022-08-18T09:35:34;8.23;;;6.90;;
17065;SDS011;23120;52.336;21.182;2022-08-18T09:38:20;7.15;;;6.55;;
17065;SDS011;23120;52.336;21.182;2022-08-18T09:41:10;7.53;;;6.85;;
17065;SDS011;23120;52.336;21.182;2022-08-18T09:44:00;8.70;;;7.10;;
17065;SDS011;23120;52.336;21.182;2022-08-18T09:46:51;7.30;;;6.68;;
17065;SDS011;23120;52.336;21.182;2022-08-18T09:49:39;7.32;;;6.68;;
17065;SDS011;23120;52.336;21.182;2022-08-18T09:58:12;10.85;;;6.45;;
17065;SDS011;23120;52.336;21.182;2022-08-18T10:00:44;6.75;;;6.15;;
17065;SDS011;23120;52.336;21.182;2022-08-18T10:06:54;8.00;;;6.65;;
17065;SDS011;23120;52.336;21.182;2022-08-18T10:09:41;6.65;;;6.07;;
17065;SDS011;23120;52.336;21.182;2022-08-18T10:12:30;8.05;;;6.22;;
17065;SDS011;23120;52.336;21.182;2022-08-18T10:15:21;8.43;;;6.68;;
17065;SDS011;23120;52.336;21.182;2022-08-18T10:18:07;7.38;;;6.68;;
17065;SDS011;23120;52.336;21.182;2022-08-18T10:21:01;7.40;;;6.60;;
17065;SDS011;23120;52.336;21.182;2022-08-18T10:23:42;7.32;;;6.47;;
17065;SDS011;23120;52.336;21.182;2022-08-18T10:29:09;6.65;;;6.10;;
17065;SDS011;23120;52.336;21.182;2022-08-18T10:34:38;13.32;;;6.82;;
17065;SDS011;23120;52.336;21.182;2022-08-18T10:37:10;11.57;;;6.60;;
17065;SDS011;23120;52.336;21.182;2022-08-18T10:39:42;7.68;;;6.22;;
17065;SDS011;23120;52.336;21.182;2022-08-18T10:42:13;8.15;;;6.57;;
17065;SDS011;23120;52.336;21.182;2022-08-18T10:44:46;14.50;;;6.57;;
17065;SDS011;23120;52.336;21.182;2022-08-18T10:47:19;8.45;;;5.95;;
17065;SDS011;23120;52.336;21.182;2022-08-18T10:49:49;8.35;;;6.30;;
17065;SDS011;23120;52.336;21.182;2022-08-18T10:52:29;9.02;;;5.95;;
17065;SDS011;23120;52.336;21.182;2022-08-18T10:55:35;7.00;;;6.32;;
17065;SDS011;23120;52.336;21.182;2022-08-18T10:58:14;6.72;;;6.15;;
17065;SDS011;23120;52.336;21.182;2022-08-18T11:01:02;7.05;;;6.00;;
17065;SDS011;23120;52.336;21.182;2022-08-18T11:03:48;7.60;;;6.80;;
17065;SDS011;23120;52.336;21.182;2022-08-18T11:06:27;11.60;;;6.45;;
17065;SDS011;23120;52.336;21.182;2022-08-18T11:09:01;7.05;;;6.38;;
17065;SDS011;23120;52.336;21.182;2022-08-18T11:11:30;7.00;;;6.40;;
17065;SDS011;23120;52.336;21.182;2022-08-18T11:14:03;7.55;;;6.03;;
17065;SDS011;23120;52.336;21.182;2022-08-18T11:16:43;7.47;;;6.40;;
17065;SDS011;23120;52.336;21.182;2022-08-18T11:19:16;6.63;;;6.03;;
17065;SDS011;23120;52.336;21.182;2022-08-18T11:21:49;6.72;;;6.13;;
17065;SDS011;23120;52.336;21.182;2022-08-18T11:24:17;6.53;;;6.03;;
17065;SDS011;23120;52.336;21.182;2022-08-18T11:26:48;8.25;;;6.40;;
17065;SDS011;23120;52.336;21.182;2022-08-18T11:29:17;7.25;;;5.88;;
17065;SDS011;23120;52.336;21.182;2022-08-18T11:31:49;6.70;;;6.13;;
17065;SDS011;23120;52.336;21.182;2022-08-18T11:34:22;6.90;;;6.20;;
17065;SDS011;23120;52.336;21.182;2022-08-18T11:36:56;7.32;;;6.60;;
17065;SDS011;23120;52.336;21.182;2022-08-18T11:39:25;8.18;;;6.10;;
17065;SDS011;23120;52.336;21.182;2022-08-18T11:41:53;6.28;;;5.78;;
17065;SDS011;23120;52.336;21.182;2022-08-18T11:44:21;6.38;;;5.93;;
17065;SDS011;23120;52.336;21.182;2022-08-18T11:46:53;6.68;;;5.90;;
17065;SDS011;23120;52.336;21.182;2022-08-18T11:49:27;8.18;;;6.07;;
17065;SDS011;23120;52.336;21.182;2022-08-18T11:51:59;6.53;;;5.80;;
17065;SDS011;23120;52.336;21.182;2022-08-18T11:54:32;8.75;;;6.40;;
17065;SDS011;23120;52.336;21.182;2022-08-18T11:59:55;6.60;;;6.00;;
17065;SDS011;23120;52.336;21.182;2022-08-18T12:02:23;7.88;;;6.32;;
17065;SDS011;23120;52.336;21.182;2022-08-18T12:04:51;8.00;;;6.03;;
17065;SDS011;23120;52.336;21.182;2022-08-18T12:07:27;6.63;;;6.10;;
17065;SDS011;23120;52.336;21.182;2022-08-18T12:10:12;6.78;;;6.15;;
17065;SDS011;23120;52.336;21.182;2022-08-18T12:12:45;8.15;;;6.15;;
17065;SDS011;23120;52.336;21.182;2022-08-18T12:15:24;8.68;;;6.70;;
17065;SDS011;23120;52.336;21.182;2022-08-18T12:17:53;9.30;;;6.28;;
17065;SDS011;23120;52.336;21.182;2022-08-18T12:20:20;6.72;;;6.07;;
17065;SDS011;23120;52.336;21.182;2022-08-18T12:22:49;9.90;;;6.50;;
17065;SDS011;23120;52.336;21.182;2022-08-18T12:25:18;6.95;;;5.95;;
17065;SDS011;23120;52.336;21.182;2022-08-18T12:27:45;6.60;;;5.82;;
17065;SDS011;23120;52.336;21.182;2022-08-18T12:30:12;9.98;;;5.90;;
17065;SDS011;23120;52.336;21.182;2022-08-18T12:32:40;8.80;;;6.07;;
17065;SDS011;23120;52.336;21.182;2022-08-18T12:35:08;7.30;;;6.15;;
17065;SDS011;23120;52.336;21.182;2022-08-18T12:37:37;6.53;;;6.03;;
17065;SDS011;23120;52.336;21.182;2022-08-18T12:40:10;7.80;;;6.15;;
17065;SDS011;23120;52.336;21.182;2022-08-18T12:42:37;7.38;;;6.05;;
17065;SDS011;23120;52.336;21.182;2022-08-18T12:45:05;7.10;;;6.43;;
17065;SDS011;23120;52.336;21.182;2022-08-18T12:47:32;12.50;;;6.72;;
17065;SDS011;23120;52.336;21.182;2022-08-18T12:50:05;11.82;;;5.72;;
17065;SDS011;23120;52.336;21.182;2022-08-18T12:52:33;13.85;;;6.25;;
17065;SDS011;23120;52.336;21.182;2022-08-18T12:55:00;10.40;;;6.38;;
17065;SDS011;23120;52.336;21.182;2022-08-18T12:57:28;6.85;;;6.25;;
17065;SDS011;23120;52.336;21.182;2022-08-18T12:59:55;9.48;;;6.35;;
17065;SDS011;23120;52.336;21.182;2022-08-18T13:02:22;7.40;;;6.03;;
17065;SDS011;23120;52.336;21.182;2022-08-18T13:04:49;7.25;;;5.72;;
17065;SDS011;23120;52.336;21.182;2022-08-18T13:07:16;6.53;;;5.85;;
17065;SDS011;23120;52.336;21.182;2022-08-18T13:09:42;7.63;;;5.40;;
17065;SDS011;23120;52.336;21.182;2022-08-18T13:12:10;9.05;;;6.75;;
17065;SDS011;23120;52.336;21.182;2022-08-18T13:14:39;9.52;;;6.63;;
17065;SDS011;23120;52.336;21.182;2022-08-18T13:17:06;9.23;;;6.20;;
17065;SDS011;23120;52.336;21.182;2022-08-18T13:19:35;6.80;;;6.10;;
17065;SDS011;23120;52.336;21.182;2022-08-18T13:22:01;6.40;;;5.32;;
17065;SDS011;23120;52.336;21.182;2022-08-18T13:24:31;7.97;;;5.95;;
17065;SDS011;23120;52.336;21.182;2022-08-18T13:26:58;6.80;;;6.05;;
17065;SDS011;23120;52.336;21.182;2022-08-18T13:29:25;6.97;;;6.30;;
17065;SDS011;23120;52.336;21.182;2022-08-18T13:31:53;6.82;;;6.00;;
17065;SDS011;23120;52.336;21.182;2022-08-18T13:34:24;6.88;;;6.28;;
17065;SDS011;23120;52.336;21.182;2022-08-18T13:36:52;8.48;;;6.18;;
17065;SDS011;23120;52.336;21.182;2022-08-18T13:39:20;6.78;;;5.93;;
17065;SDS011;23120;52.336;21.182;2022-08-18T13:41:50;10.00;;;6.00;;
17065;SDS011;23120;52.336;21.182;2022-08-18T13:44:19;6.68;;;5.95;;
17065;SDS011;23120;52.336;21.182;2022-08-18T13:46:47;8.02;;;6.03;;
17065;SDS011;23120;52.336;21.182;2022-08-18T13:49:18;6.70;;;6.05;;
17065;SDS011;23120;52.336;21.182;2022-08-18T13:51:47;7.78;;;6.10;;
17065;SDS011;23120;52.336;21.182;2022-08-18T13:54:17;6.38;;;5.70;;
17065;SDS011;23120;52.336;21.182;2022-08-18T13:56:47;6.07;;;5.35;;
17065;SDS011;23120;52.336;21.182;2022-08-18T13:59:14;7.57;;;5.93;;
17065;SDS011;23120;52.336;21.182;2022-08-18T14:01:42;7.05;;;6.32;;
17065;SDS011;23120;52.336;21.182;2022-08-18T14:04:10;6.68;;;6.07;;
17065;SDS011;23120;52.336;21.182;2022-08-18T14:06:39;8.63;;;5.53;;
17065;SDS011;23120;52.336;21.182;2022-08-18T14:09:06;13.48;;;6.25;;
17065;SDS011;23120;52.336;21.182;2022-08-18T14:11:34;6.88;;;6.18;;
17065;SDS011;23120;52.336;21.182;2022-08-18T14:14:02;11.23;;;6.30;;
17065;SDS011;23120;52.336;21.182;2022-08-18T14:16:31;10.40;;;6.15;;
17065;SDS011;23120;52.336;21.182;2022-08-18T14:18:58;7.40;;;6.70;;
17065;SDS011;23120;52.336;21.182;2022-08-18T14:21:46;8.38;;;6.30;;
17065;SDS011;23120;52.336;21.182;2022-08-18T14:24:35;9.15;;;6.75;;
17065;SDS011;23120;52.336;21.182;2022-08-18T14:27:23;12.95;;;6.88;;
17065;SDS011;23120;52.336;21.182;2022-08-18T14:29:52;14.52;;;6.55;;
17065;SDS011;23120;52.336;21.182;2022-08-18T14:32:19;9.50;;;6.13;;
17065;SDS011;23120;52.336;21.182;2022-08-18T14:34:47;36.28;;;8.07;;
17065;SDS011;23120;52.336;21.182;2022-08-18T14:37:16;12.07;;;6.78;;
17065;SDS011;23120;52.336;21.182;2022-08-18T14:39:43;7.60;;;6.15;;
17065;SDS011;23120;52.336;21.182;2022-08-18T14:42:09;12.05;;;6.22;;
17065;SDS011;23120;52.336;21.182;2022-08-18T14:44:39;11.43;;;5.65;;
17065;SDS011;23120;52.336;21.182;2022-08-18T14:47:05;16.17;;;6.55;;
17065;SDS011;23120;52.336;21.182;2022-08-18T14:49:32;10.20;;;5.93;;
17065;SDS011;23120;52.336;21.182;2022-08-18T14:52:00;8.05;;;6.00;;
17065;SDS011;23120;52.336;21.182;2022-08-18T14:54:30;9.52;;;5.78;;
17065;SDS011;23120;52.336;21.182;2022-08-18T14:56:57;7.43;;;5.90;;
17065;SDS011;23120;52.336;21.182;2022-08-18T14:59:25;8.10;;;6.05;;
17065;SDS011;23120;52.336;21.182;2022-08-18T15:01:54;10.40;;;6.10;;
17065;SDS011;23120;52.336;21.182;2022-08-18T15:04:22;8.15;;;5.80;;
17065;SDS011;23120;52.336;21.182;2022-08-18T15:06:49;7.15;;;6.20;;
17065;SDS011;23120;52.336;21.182;2022-08-18T15:09:16;8.30;;;5.88;;
17065;SDS011;23120;52.336;21.182;2022-08-18T15:11:44;6.57;;;5.88;;